createdAt,value
2023-05-10T00:03:34.111Z,11.21
2023-05-10T00:13:35.962Z,10.93
2023-05-10T00:23:37.760Z,10.67
2023-05-10T00:33:45.651Z,10.38
2023-05-10T00:43:48.743Z,10.11
2023-05-10T00:53:52.595Z,9.94
2023-05-10T01:03:57.013Z,9.81
2023-05-10T01:13:59.621Z,9.78
2023-05-10T01:24:23.140Z,9.97
2023-05-10T01:35:03.980Z,10.14
2023-05-10T01:45:26.785Z,10.43
2023-05-10T01:55:35.853Z,10.58
2023-05-10T02:05:45.617Z,10.62
2023-05-10T02:15:51.985Z,10.78
2023-05-10T02:26:07.735Z,11.00
2023-05-10T02:36:11.677Z,11.08
2023-05-10T02:46:13.579Z,11.12
2023-05-10T02:56:30.000Z,11.14
2023-05-10T03:06:32.527Z,11.07
2023-05-10T03:16:48.076Z,11.02
2023-05-10T03:26:51.726Z,10.86
2023-05-10T03:36:53.618Z,10.81
2023-05-10T03:46:59.296Z,10.70
2023-05-10T03:57:02.053Z,10.70
2023-05-10T04:07:05.088Z,11.11
2023-05-10T04:17:06.957Z,11.35
2023-05-10T04:27:14.853Z,11.13
2023-05-10T04:37:16.638Z,10.79
2023-05-10T04:47:21.530Z,10.79
2023-05-10T04:57:23.418Z,10.75
2023-05-10T05:07:27.691Z,11.09
2023-05-10T05:17:32.619Z,11.22
2023-05-10T05:27:34.730Z,12.22
2023-05-10T05:37:36.606Z,12.75
2023-05-10T05:47:38.211Z,12.80
2023-05-10T05:57:39.935Z,12.65
2023-05-10T06:07:43.928Z,12.69
2023-05-10T06:17:48.406Z,13.29
2023-05-10T06:27:53.682Z,14.11
2023-05-10T06:37:56.224Z,13.89
2023-05-10T06:47:57.968Z,13.86
2023-05-10T06:58:00.795Z,14.71
2023-05-10T07:08:02.851Z,14.78
2023-05-10T07:18:05.700Z,16.11
2023-05-10T07:28:08.706Z,16.14
2023-05-10T07:38:16.292Z,16.83
2023-05-10T07:48:17.997Z,17.33
2023-05-10T07:58:20.420Z,17.83
2023-05-10T08:08:25.319Z,18.32
2023-05-10T08:18:27.145Z,17.41
2023-05-10T08:28:28.874Z,16.95
2023-05-10T08:38:30.815Z,17.56
2023-05-10T08:48:35.479Z,18.03
2023-05-10T08:58:39.255Z,18.65
2023-05-10T09:08:42.782Z,19.06
2023-05-10T09:18:46.721Z,21.10
2023-05-10T09:28:52.508Z,21.32
2023-05-10T09:39:01.591Z,23.61
2023-05-10T09:49:03.242Z,20.63
2023-05-10T09:59:05.934Z,20.74
2023-05-10T10:09:08.966Z,20.96
2023-05-10T10:19:11.399Z,22.57
2023-05-10T10:29:28.514Z,30.25
2023-05-10T10:39:32.580Z,24.35
2023-05-10T10:49:40.164Z,22.62
2023-05-10T10:59:45.642Z,27.62
2023-05-10T11:09:48.499Z,27.22
2023-05-10T11:20:10.781Z,30.99
2023-05-10T11:30:14.053Z,27.49
2023-05-10T11:40:30.953Z,24.81
2023-05-10T11:50:33.981Z,21.93
2023-05-10T12:00:36.772Z,22.06
2023-05-10T12:10:40.051Z,21.68
2023-05-10T12:20:42.623Z,21.44
2023-05-10T12:30:46.094Z,21.59
2023-05-10T12:40:49.935Z,21.65
2023-05-10T12:50:57.584Z,21.60
2023-05-10T13:01:01.324Z,22.36
2023-05-10T13:11:04.247Z,23.12
2023-05-10T13:21:06.457Z,26.50
2023-05-10T13:31:09.539Z,27.91
2023-05-10T13:41:12.229Z,29.78
2023-05-10T13:51:14.766Z,25.72
2023-05-10T14:01:16.393Z,24.26
2023-05-10T14:11:18.597Z,27.57
2023-05-10T14:21:21.576Z,33.75
2023-05-10T14:31:25.583Z,30.59
2023-05-10T14:41:27.313Z,31.37
2023-05-10T14:51:28.999Z,25.09
2023-05-10T15:01:37.862Z,21.16
2023-05-10T15:11:40.072Z,19.97
2023-05-10T15:21:44.449Z,20.49
2023-05-10T15:31:48.144Z,23.44
2023-05-10T15:41:49.889Z,22.18
2023-05-10T15:51:51.646Z,20.36
2023-05-10T16:02:02.326Z,20.19
2023-05-10T16:12:08.593Z,19.69
2023-05-10T16:22:10.430Z,19.87
2023-05-10T16:32:14.710Z,21.21
2023-05-10T16:42:16.499Z,21.06
2023-05-10T16:52:18.465Z,18.89
2023-05-10T17:02:30.325Z,18.37
2023-05-10T17:12:32.315Z,17.75
2023-05-10T17:22:34.121Z,17.94
2023-05-10T17:32:35.950Z,17.30
2023-05-10T17:42:37.764Z,16.94
2023-05-10T17:52:39.705Z,16.47
2023-05-10T18:02:42.653Z,16.06
2023-05-10T18:12:46.484Z,15.69
2023-05-10T18:22:48.205Z,15.40
2023-05-10T18:32:50.216Z,15.14
2023-05-10T18:42:53.101Z,14.94
2023-05-10T18:52:57.769Z,14.86
2023-05-10T19:03:02.653Z,14.81
2023-05-10T19:13:13.027Z,14.63
2023-05-10T19:23:16.889Z,14.63
2023-05-10T19:33:49.680Z,14.63
2023-05-10T19:43:52.227Z,14.67
2023-05-10T19:53:55.751Z,14.63
2023-05-10T20:04:01.053Z,14.56
2023-05-10T20:14:05.086Z,14.43
2023-05-10T20:24:11.366Z,14.46
2023-05-10T20:34:13.697Z,14.43
2023-05-10T20:54:49.080Z,14.36
2023-05-10T21:04:57.988Z,14.32
2023-05-10T21:14:59.980Z,14.30
2023-05-10T21:25:02.257Z,14.21
2023-05-10T21:35:05.532Z,14.08
2023-05-10T21:45:08.064Z,14.03
2023-05-10T21:55:10.137Z,13.97
2023-05-10T22:05:11.804Z,13.90
2023-05-10T22:15:13.632Z,13.85
2023-05-10T22:25:15.564Z,13.77
2023-05-10T22:35:17.570Z,13.62
2023-05-10T22:45:21.865Z,13.34
2023-05-10T22:55:25.821Z,12.97
2023-05-10T23:05:43.118Z,12.65
2023-05-10T23:15:46.014Z,12.65
2023-05-10T23:25:54.050Z,12.55
2023-05-10T23:36:00.944Z,12.58
2023-05-10T23:46:02.799Z,12.55
2023-05-10T23:56:05.337Z,12.58
